createdAt,value
2019-03-18T00:01:36.006Z,95.32
2019-03-18T00:06:39.515Z,94.77
2019-03-18T00:11:42.976Z,95.61
2019-03-18T00:16:46.472Z,96.49
2019-03-18T00:21:49.890Z,95.23
2019-03-18T00:26:53.468Z,95.21
2019-03-18T00:31:56.893Z,95.77
2019-03-18T00:37:00.341Z,95.50
2019-03-18T00:42:03.885Z,95.94
2019-03-18T00:47:07.309Z,96.41
2019-03-18T00:52:10.736Z,95.53
2019-03-18T00:57:14.140Z,95.73
2019-03-18T01:02:17.642Z,95.68
2019-03-18T01:07:21.119Z,95.46
2019-03-18T01:12:24.533Z,95.48
2019-03-18T01:17:27.959Z,96.51
2019-03-18T01:22:31.385Z,96.52
2019-03-18T01:27:34.804Z,97.14
2019-03-18T01:32:38.217Z,96.94
2019-03-18T01:37:41.651Z,96.71
2019-03-18T01:42:45.154Z,96.54
2019-03-18T01:47:48.547Z,96.63
2019-03-18T01:52:51.974Z,96.92
2019-03-18T01:57:55.470Z,96.33
2019-03-18T02:02:58.933Z,96.55
2019-03-18T02:08:02.441Z,96.59
2019-03-18T02:13:05.856Z,97.47
2019-03-18T02:18:09.286Z,96.59
2019-03-18T02:23:12.775Z,96.49
2019-03-18T02:28:16.164Z,98.02
2019-03-18T02:33:19.590Z,97.73
2019-03-18T02:38:23.043Z,97.68
2019-03-18T02:43:26.464Z,97.52
2019-03-18T02:48:29.879Z,98.16
2019-03-18T02:53:33.352Z,98.83
2019-03-18T02:58:36.792Z,100.00
2019-03-18T03:03:40.230Z,100.00
2019-03-18T03:08:43.880Z,100.00
2019-03-18T03:13:47.312Z,100.00
2019-03-18T03:18:51.001Z,100.00
2019-03-18T03:23:54.431Z,100.00
2019-03-18T03:28:57.851Z,100.00
2019-03-18T03:34:01.303Z,100.00
2019-03-18T03:39:06.582Z,100.00
2019-03-18T03:44:12.085Z,100.00
2019-03-18T03:49:15.518Z,100.00
2019-03-18T03:54:19.662Z,100.00
2019-03-18T03:59:23.349Z,100.00
2019-03-18T04:04:26.773Z,100.00
2019-03-18T04:09:30.225Z,100.00
2019-03-18T04:14:33.657Z,100.00
2019-03-18T04:19:37.107Z,100.00
2019-03-18T04:24:40.537Z,100.00
2019-03-18T04:29:44.000Z,100.00
2019-03-18T04:34:47.442Z,100.00
2019-03-18T04:39:50.896Z,100.00
2019-03-18T04:44:54.326Z,100.00
2019-03-18T04:49:57.770Z,100.00
2019-03-18T04:55:01.234Z,100.00
2019-03-18T05:00:08.102Z,100.00
2019-03-18T05:05:11.624Z,100.00
2019-03-18T05:10:15.067Z,100.00
2019-03-18T05:15:18.518Z,100.00
2019-03-18T05:20:21.966Z,100.00
2019-03-18T05:25:25.429Z,100.00
2019-03-18T05:30:28.880Z,100.00
2019-03-18T05:35:32.322Z,100.00
2019-03-18T05:40:35.775Z,100.00
2019-03-18T05:45:39.231Z,100.00
2019-03-18T05:50:42.653Z,100.00
2019-03-18T05:55:46.116Z,100.00
2019-03-18T06:00:49.826Z,100.00
2019-03-18T06:05:53.257Z,100.00
2019-03-18T06:10:56.767Z,100.00
2019-03-18T06:16:00.193Z,100.00
2019-03-18T06:21:03.634Z,100.00
2019-03-18T06:26:07.053Z,100.00
2019-03-18T06:31:10.567Z,100.00
2019-03-18T06:36:14.004Z,100.00
2019-03-18T06:41:17.433Z,100.00
2019-03-18T06:46:20.865Z,100.00
2019-03-18T06:51:24.309Z,100.00
2019-03-18T06:56:27.829Z,100.00
2019-03-18T07:01:31.295Z,100.00
2019-03-18T07:06:34.720Z,100.00
2019-03-18T07:11:38.195Z,100.00
2019-03-18T07:16:41.629Z,100.00
2019-03-18T07:21:47.347Z,100.00
2019-03-18T07:26:50.788Z,100.00
2019-03-18T07:31:54.229Z,100.00
2019-03-18T07:36:57.708Z,100.00
2019-03-18T07:42:01.191Z,100.00
2019-03-18T07:47:04.623Z,100.00
2019-03-18T07:52:08.116Z,100.00
2019-03-18T07:57:11.549Z,100.00
2019-03-18T08:02:14.969Z,100.00
2019-03-18T08:07:18.409Z,100.00
2019-03-18T08:12:21.854Z,98.79
2019-03-18T08:17:25.277Z,97.42
2019-03-18T08:22:28.704Z,96.62
2019-03-18T08:27:32.134Z,96.08
2019-03-18T08:32:35.545Z,95.67
2019-03-18T08:37:39.025Z,96.27
2019-03-18T08:42:42.465Z,93.92
2019-03-18T08:47:45.898Z,91.44
2019-03-18T08:52:49.335Z,90.70
2019-03-18T08:57:52.797Z,89.32
2019-03-18T09:02:56.537Z,87.56
2019-03-18T09:08:00.006Z,86.86
2019-03-18T09:13:03.436Z,84.43
2019-03-18T09:18:07.090Z,85.66
2019-03-18T09:23:10.526Z,80.19
2019-03-18T09:28:13.995Z,81.10
2019-03-18T09:33:17.409Z,78.09
2019-03-18T09:38:20.842Z,78.77
2019-03-18T09:43:24.272Z,79.50
2019-03-18T09:48:27.717Z,77.05
2019-03-18T09:53:31.221Z,73.85
2019-03-18T09:58:34.675Z,71.06
2019-03-18T10:03:38.103Z,72.08
2019-03-18T10:08:41.525Z,69.54
2019-03-18T10:13:44.980Z,70.11
2019-03-18T10:18:48.428Z,65.83
2019-03-18T10:23:51.858Z,64.52
2019-03-18T10:28:55.634Z,62.67
2019-03-18T10:33:59.040Z,61.52
2019-03-18T10:39:02.461Z,61.86
2019-03-18T10:44:05.915Z,57.31
2019-03-18T10:49:09.349Z,59.37
2019-03-18T10:54:13.194Z,57.51
2019-03-18T10:59:16.568Z,55.05
2019-03-18T11:04:20.009Z,53.31
2019-03-18T11:09:23.460Z,50.24
2019-03-18T11:14:26.873Z,48.06
2019-03-18T11:19:30.352Z,48.21
2019-03-18T11:24:33.808Z,48.14
2019-03-18T11:29:37.295Z,51.19
2019-03-18T11:34:40.715Z,50.08
2019-03-18T11:39:44.129Z,48.43
2019-03-18T11:44:47.548Z,50.42
2019-03-18T11:49:50.963Z,51.23
2019-03-18T11:54:54.390Z,51.38
2019-03-18T11:59:57.815Z,67.44
2019-03-18T12:05:01.227Z,69.78
2019-03-18T12:10:07.358Z,70.98
2019-03-18T12:15:13.319Z,73.67
2019-03-18T12:20:24.189Z,79.15
2019-03-18T12:25:22.286Z,83.75
2019-03-18T12:30:29.271Z,82.39
2019-03-18T12:35:32.707Z,82.45
2019-03-18T12:40:36.139Z,81.45
2019-03-18T12:45:39.647Z,76.85
2019-03-18T12:50:55.880Z,73.65
2019-03-18T12:55:48.199Z,69.05
2019-03-18T13:00:51.612Z,68.76
2019-03-18T13:05:55.038Z,67.02
2019-03-18T13:10:58.572Z,64.35
2019-03-18T13:16:02.043Z,57.43
2019-03-18T13:21:08.075Z,54.33
2019-03-18T13:26:10.603Z,52.57
2019-03-18T13:31:14.048Z,53.06
2019-03-18T13:36:17.472Z,49.35
2019-03-18T13:41:20.922Z,54.51
2019-03-18T13:46:24.440Z,63.35
2019-03-18T13:51:27.853Z,66.41
2019-03-18T13:56:31.267Z,69.41
2019-03-18T14:01:34.701Z,69.61
2019-03-18T14:06:38.858Z,68.64
2019-03-18T14:11:42.286Z,74.55
2019-03-18T14:16:45.711Z,75.59
2019-03-18T14:21:49.122Z,75.06
2019-03-18T14:26:52.705Z,72.92
2019-03-18T14:31:56.241Z,71.80
2019-03-18T14:36:59.684Z,66.77
2019-03-18T14:42:03.113Z,64.08
2019-03-18T14:47:06.555Z,59.73
2019-03-18T14:52:09.983Z,57.93
2019-03-18T14:57:13.432Z,53.66
2019-03-18T15:02:16.862Z,53.71
2019-03-18T15:07:20.322Z,50.74
2019-03-18T15:12:23.753Z,49.39
2019-03-18T15:17:27.163Z,52.93
2019-03-18T15:22:30.583Z,55.53
2019-03-18T15:27:34.006Z,51.10
2019-03-18T15:32:37.452Z,52.08
2019-03-18T15:37:40.980Z,53.21
2019-03-18T15:42:44.423Z,52.45
2019-03-18T15:47:47.821Z,54.90
2019-03-18T15:52:51.247Z,54.02
2019-03-18T15:57:54.666Z,58.09
2019-03-18T16:02:58.102Z,55.57
2019-03-18T16:08:01.605Z,56.58
2019-03-18T16:13:05.211Z,56.00
2019-03-18T16:18:08.643Z,54.27
2019-03-18T16:23:12.084Z,55.77
2019-03-18T16:28:15.538Z,54.53
2019-03-18T16:33:18.989Z,55.65
2019-03-18T16:38:22.473Z,58.53
2019-03-18T16:43:25.897Z,64.63
2019-03-18T16:48:29.378Z,68.71
2019-03-18T16:53:32.805Z,70.44
2019-03-18T16:58:36.215Z,69.42
2019-03-18T17:03:39.646Z,69.81
2019-03-18T17:08:43.074Z,68.58
2019-03-18T17:13:46.490Z,71.01
2019-03-18T17:18:49.916Z,70.34
2019-03-18T17:23:53.439Z,71.27
2019-03-18T17:28:56.881Z,71.90
2019-03-18T17:34:00.440Z,73.03
2019-03-18T17:39:05.379Z,73.74
2019-03-18T17:44:09.780Z,74.35
2019-03-18T17:49:13.289Z,73.80
2019-03-18T17:54:16.767Z,73.56
2019-03-18T17:59:20.304Z,73.26
2019-03-18T18:04:23.711Z,73.74
2019-03-18T18:09:27.158Z,74.04
2019-03-18T18:14:30.599Z,74.20
2019-03-18T18:19:34.047Z,73.93
2019-03-18T18:24:37.557Z,74.64
2019-03-18T18:29:41.078Z,75.83
2019-03-18T18:34:44.521Z,77.03
2019-03-18T18:39:47.987Z,76.77
2019-03-18T18:44:51.409Z,77.60
2019-03-18T18:49:54.853Z,78.40
2019-03-18T18:54:58.267Z,78.27
2019-03-18T19:00:01.697Z,78.10
2019-03-18T19:05:08.562Z,77.37
2019-03-18T19:10:17.253Z,79.23
2019-03-18T19:15:35.031Z,79.40
2019-03-18T19:20:38.484Z,80.33
2019-03-18T19:25:41.904Z,80.14
2019-03-18T19:30:45.346Z,80.22
2019-03-18T19:41:22.207Z,81.03
2019-03-18T19:46:25.606Z,81.47
2019-03-18T19:51:29.059Z,81.12
2019-03-18T19:57:30.506Z,83.90
2019-03-18T20:03:11.846Z,83.07
2019-03-18T20:08:15.281Z,83.72
2019-03-18T20:13:18.871Z,84.27
2019-03-18T20:18:22.456Z,83.84
2019-03-18T20:23:25.863Z,84.54
2019-03-18T20:28:29.273Z,85.35
2019-03-18T20:33:32.766Z,83.89
2019-03-18T20:38:36.124Z,85.71
2019-03-18T20:43:39.607Z,86.32
2019-03-18T20:48:43.144Z,86.65
2019-03-18T20:53:46.605Z,87.80
2019-03-18T20:58:50.170Z,87.81
2019-03-18T21:03:53.606Z,87.44
2019-03-18T21:08:57.085Z,88.61
2019-03-18T21:14:00.594Z,89.61
2019-03-18T21:19:04.950Z,90.04
2019-03-18T21:24:08.468Z,90.26
2019-03-18T21:29:11.985Z,90.14
2019-03-18T21:34:15.601Z,90.80
2019-03-18T21:39:19.079Z,91.67
2019-03-18T21:44:22.492Z,91.84
2019-03-18T21:49:25.944Z,92.10
2019-03-18T21:54:34.189Z,92.63
2019-03-18T21:59:34.536Z,92.87
2019-03-18T22:04:37.975Z,93.96
2019-03-18T22:09:41.765Z,92.75
2019-03-18T22:14:45.226Z,93.50
2019-03-18T22:19:48.746Z,93.71
2019-03-18T22:24:52.814Z,95.28
2019-03-18T22:29:56.794Z,94.99
2019-03-18T22:35:00.346Z,94.98
2019-03-18T22:40:25.179Z,93.38
2019-03-18T22:45:28.643Z,97.01
2019-03-18T22:50:32.073Z,97.11
2019-03-18T22:55:35.554Z,97.35
2019-03-18T23:00:46.403Z,97.08
2019-03-18T23:05:50.134Z,97.42
2019-03-18T23:10:53.670Z,97.16
2019-03-18T23:15:57.100Z,97.54
2019-03-18T23:21:00.692Z,95.61
2019-03-18T23:26:04.282Z,97.93
2019-03-18T23:31:07.789Z,96.06
2019-03-18T23:36:11.236Z,97.38
2019-03-18T23:41:15.555Z,98.07
2019-03-18T23:46:19.176Z,97.45
2019-03-18T23:51:22.761Z,98.15
2019-03-18T23:56:26.266Z,98.52
